Time;durP1;ratioP1;P1;durP2;ratioP2;P2;SDS_P1;SDS_P2;PMS_P1;PMS_P2;Temp;Humidity;BMP_temperature;BMP_pressure;BME280_temperature;BME280_humidity;BME280_pressure;Samples;Min_cycle;Max_cycle;Signal;HPM_P1;HPM_P2
2022/10/22 00:02:08;;;;;;;14.57;5.63;;;17.30;99.90;;;;;;4964088;28;20631;-79
2022/10/22 00:04:35;;;;;;;9.10;4.60;;;17.30;99.90;;;;;;4961459;28;20179;-79
2022/10/22 00:07:01;;;;;;;9.27;4.60;;;17.30;99.90;;;;;;4966156;28;20185;-79
2022/10/22 00:09:29;;;;;;;9.17;4.53;;;17.30;99.90;;;;;;4947185;28;20182;-79
2022/10/22 00:11:58;;;;;;;7.13;4.37;;;17.30;99.90;;;;;;4984128;28;20209;-79
2022/10/22 00:14:25;;;;;;;9.53;4.30;;;17.30;99.90;;;;;;4973238;28;20575;-79
2022/10/22 00:16:51;;;;;;;11.13;4.93;;;17.20;99.90;;;;;;4978774;28;20189;-79
2022/10/22 00:19:17;;;;;;;5.50;4.17;;;17.10;99.90;;;;;;4978175;28;20208;-79
2022/10/22 00:21:43;;;;;;;9.33;4.80;;;17.10;99.90;;;;;;4953409;28;20555;-79
2022/10/22 00:24:10;;;;;;;8.23;4.77;;;17.00;99.90;;;;;;4969210;28;20358;-79
2022/10/22 00:26:36;;;;;;;11.83;4.90;;;17.00;99.90;;;;;;4985383;28;20201;-79
2022/10/22 00:29:02;;;;;;;7.80;4.93;;;17.10;99.90;;;;;;4983824;28;20182;-79
2022/10/22 00:31:29;;;;;;;10.23;5.67;;;17.00;99.90;;;;;;4969827;28;20225;-78
2022/10/22 00:33:55;;;;;;;9.60;5.37;;;17.00;99.90;;;;;;4969949;28;20280;-79
2022/10/22 00:36:24;;;;;;;10.17;5.23;;;16.90;99.90;;;;;;4967873;28;20424;-79
2022/10/22 00:38:50;;;;;;;10.27;5.33;;;16.90;99.90;;;;;;4955726;28;20220;-79
2022/10/22 00:41:18;;;;;;;7.13;4.50;;;16.80;99.90;;;;;;4983170;28;20317;-79
2022/10/22 00:44:54;;;;;;;11.80;5.30;;;16.80;99.90;;;;;;4967300;28;20206;-79
2022/10/22 00:47:24;;;;;;;11.70;4.93;;;16.80;99.90;;;;;;4960155;28;20236;-79
2022/10/22 00:49:52;;;;;;;9.50;4.80;;;16.70;99.90;;;;;;4968718;28;20197;-79
2022/10/22 00:52:20;;;;;;;8.83;4.80;;;16.70;99.90;;;;;;4968078;28;20806;-79
2022/10/22 00:54:46;;;;;;;11.80;5.50;;;16.80;99.90;;;;;;4980644;28;20281;-79
2022/10/22 00:57:15;;;;;;;14.77;5.00;;;16.80;99.90;;;;;;4978589;28;20256;-79
2022/10/22 00:59:42;;;;;;;11.50;4.73;;;16.90;99.90;;;;;;4978522;28;20192;-79
2022/10/22 01:02:08;;;;;;;13.90;5.07;;;16.90;99.90;;;;;;4986954;28;20199;-79
2022/10/22 01:04:37;;;;;;;8.33;4.90;;;16.80;99.90;;;;;;4979475;28;20194;-79
2022/10/22 01:07:04;;;;;;;11.07;5.10;;;16.90;99.90;;;;;;4981813;28;20200;-79
2022/10/22 01:10:34;;;;;;;9.00;4.70;;;16.90;99.90;;;;;;4977211;28;20264;-79
2022/10/22 01:13:40;;;;;;;12.40;5.40;;;16.80;99.90;;;;;;4975980;28;20215;-79
2022/10/22 01:16:13;;;;;;;9.67;5.03;;;16.80;99.90;;;;;;4973749;28;20236;-78
2022/10/22 01:19:21;;;;;;;10.00;5.10;;;16.70;99.90;;;;;;4968056;28;20186;-79
2022/10/22 01:22:06;;;;;;;13.10;5.00;;;16.70;99.90;;;;;;4986406;28;20188;-79
2022/10/22 01:25:07;;;;;;;11.60;4.77;;;16.70;99.90;;;;;;4980240;28;20828;-79
2022/10/22 01:27:41;;;;;;;16.00;4.23;;;16.60;99.90;;;;;;4968523;28;20217;-79
2022/10/22 01:30:12;;;;;;;11.53;4.37;;;16.60;99.90;;;;;;4988173;28;20192;-79
2022/10/22 01:33:04;;;;;;;5.10;3.93;;;16.60;99.90;;;;;;4974833;28;20285;-79
2022/10/22 01:35:51;;;;;;;9.07;4.37;;;16.60;99.90;;;;;;4953833;28;20456;-78
2022/10/22 01:38:23;;;;;;;7.90;3.67;;;16.70;99.90;;;;;;4985746;28;20185;-79
2022/10/22 01:40:51;;;;;;;13.20;4.27;;;16.70;99.90;;;;;;4983285;28;20223;-79
2022/10/22 01:43:18;;;;;;;5.40;3.70;;;16.70;99.90;;;;;;4984977;28;20189;-79
2022/10/22 01:46:02;;;;;;;9.37;3.77;;;16.70;99.90;;;;;;4967931;28;20190;-79
2022/10/22 01:49:12;;;;;;;8.03;4.20;;;16.70;99.90;;;;;;4975927;28;20734;-79
2022/10/22 01:52:06;;;;;;;10.40;4.60;;;16.70;99.90;;;;;;4979365;28;20235;-79
2022/10/22 01:55:26;;;;;;;7.00;4.03;;;16.50;99.90;;;;;;4976985;28;20200;-79
2022/10/22 01:58:34;;;;;;;6.33;4.03;;;16.40;99.90;;;;;;4980640;28;20185;-79
2022/10/22 02:02:05;;;;;;;8.47;3.80;;;16.40;99.90;;;;;;4969383;28;20266;-80
2022/10/22 02:05:08;;;;;;;5.17;3.67;;;16.30;99.90;;;;;;4951805;28;20226;-79
2022/10/22 02:08:13;;;;;;;7.43;3.90;;;16.30;99.90;;;;;;4917696;28;20290;-81
2022/10/22 02:10:44;;;;;;;11.07;3.87;;;16.20;99.90;;;;;;4949300;28;20242;-79
2022/10/22 02:13:40;;;;;;;7.30;4.27;;;16.20;99.90;;;;;;4991392;28;20198;-79
2022/10/22 02:16:12;;;;;;;8.43;4.23;;;16.20;99.90;;;;;;4975907;28;20669;-79
2022/10/22 02:18:44;;;;;;;14.17;3.90;;;16.10;99.90;;;;;;4964579;28;20528;-79
2022/10/22 02:21:14;;;;;;;9.60;4.50;;;16.10;99.90;;;;;;4945937;28;20190;-79
2022/10/22 02:23:41;;;;;;;7.57;4.53;;;16.10;99.90;;;;;;4979069;28;20205;-79
2022/10/22 02:26:41;;;;;;;9.27;4.10;;;16.10;99.90;;;;;;4944468;28;20198;-79
2022/10/22 02:29:42;;;;;;;13.03;4.23;;;16.10;99.90;;;;;;4963346;28;20240;-79
2022/10/22 02:32:15;;;;;;;11.57;4.20;;;16.10;99.90;;;;;;4980039;28;20760;-80
2022/10/22 02:34:41;;;;;;;6.17;3.97;;;16.10;99.90;;;;;;4969832;28;20615;-79
2022/10/22 02:37:09;;;;;;;7.60;3.80;;;16.10;99.90;;;;;;4984858;28;20189;-79
2022/10/22 02:39:37;;;;;;;9.03;4.17;;;16.10;99.90;;;;;;4967288;28;20201;-79
2022/10/22 02:42:04;;;;;;;10.67;4.20;;;16.00;99.90;;;;;;4964118;28;20300;-79
2022/10/22 02:44:32;;;;;;;9.53;4.13;;;16.00;99.90;;;;;;4969840;28;20228;-79
2022/10/22 02:47:00;;;;;;;9.73;3.73;;;16.00;99.90;;;;;;4976115;28;20194;-79
2022/10/22 02:49:26;;;;;;;8.03;3.70;;;15.90;99.90;;;;;;4984712;28;20254;-79
2022/10/22 02:51:52;;;;;;;7.53;4.07;;;15.90;99.90;;;;;;4945270;28;20225;-80
2022/10/22 02:54:19;;;;;;;8.67;4.30;;;15.90;99.90;;;;;;4984987;28;20259;-79
2022/10/22 02:56:45;;;;;;;6.90;3.90;;;15.90;99.90;;;;;;4974542;28;20182;-79
2022/10/22 02:59:11;;;;;;;12.33;4.10;;;15.90;99.90;;;;;;4986628;28;20765;-79
2022/10/22 03:01:37;;;;;;;7.27;3.90;;;15.80;99.90;;;;;;4969563;28;20186;-79
2022/10/22 03:04:04;;;;;;;7.70;4.23;;;15.80;99.90;;;;;;4969752;28;20230;-79
2022/10/22 03:06:32;;;;;;;7.17;4.13;;;15.80;99.90;;;;;;4982703;28;20200;-79
2022/10/22 03:08:59;;;;;;;9.20;4.43;;;15.80;99.90;;;;;;4952319;28;20193;-79
2022/10/22 03:11:26;;;;;;;8.37;3.80;;;15.80;99.90;;;;;;4951342;28;20615;-79
2022/10/22 03:13:53;;;;;;;9.23;4.27;;;15.80;99.90;;;;;;4982519;28;20555;-79
2022/10/22 03:16:20;;;;;;;9.80;4.10;;;15.80;99.90;;;;;;4987126;28;20198;-79
2022/10/22 03:18:46;;;;;;;7.80;4.33;;;15.70;99.90;;;;;;4972470;28;20192;-79
2022/10/22 03:21:26;;;;;;;7.33;4.77;;;15.70;99.90;;;;;;4981208;28;20259;-79
2022/10/22 03:23:54;;;;;;;6.60;4.23;;;15.70;99.90;;;;;;4969755;28;20178;-79
2022/10/22 03:26:22;;;;;;;9.30;4.10;;;15.60;99.90;;;;;;4965568;28;20194;-79
2022/10/22 03:28:49;;;;;;;8.40;4.20;;;15.70;99.90;;;;;;4982057;28;20260;-80
2022/10/22 03:31:16;;;;;;;11.63;4.30;;;15.70;99.90;;;;;;4960666;28;20204;-79
2022/10/22 03:33:42;;;;;;;8.53;4.10;;;15.70;99.90;;;;;;4956258;28;20655;-79
2022/10/22 03:36:09;;;;;;;9.53;4.00;;;15.60;99.90;;;;;;4950600;28;20201;-79
2022/10/22 03:38:40;;;;;;;5.30;3.47;;;15.60;99.90;;;;;;4971279;28;20197;-79
2022/10/22 03:41:07;;;;;;;9.60;4.33;;;15.60;99.90;;;;;;4972204;28;20194;-79
2022/10/22 03:43:36;;;;;;;8.77;3.90;;;15.60;99.90;;;;;;4969542;28;20202;-79
2022/10/22 03:46:02;;;;;;;9.23;4.37;;;15.60;99.90;;;;;;4975666;28;20582;-79
2022/10/22 03:48:29;;;;;;;8.77;3.57;;;15.60;99.90;;;;;;4986137;28;20280;-79
2022/10/22 03:50:56;;;;;;;7.30;3.60;;;15.50;99.90;;;;;;4984516;28;20233;-79
2022/10/22 03:53:22;;;;;;;14.77;4.20;;;15.50;99.90;;;;;;4975030;28;20717;-80
2022/10/22 03:55:49;;;;;;;7.57;3.97;;;15.50;99.90;;;;;;4987147;28;20620;-79
2022/10/22 03:58:16;;;;;;;9.20;4.00;;;15.50;99.90;;;;;;4970035;28;20212;-79
2022/10/22 04:00:42;;;;;;;6.23;3.67;;;15.50;99.90;;;;;;4985060;28;20248;-79
2022/10/22 04:03:09;;;;;;;12.30;4.93;;;15.50;99.90;;;;;;4973315;28;20185;-79
2022/10/22 04:05:35;;;;;;;10.40;3.97;;;15.40;99.90;;;;;;4965328;28;20194;-79
2022/10/22 04:08:02;;;;;;;9.87;4.13;;;15.50;99.90;;;;;;4987481;28;20690;-79
2022/10/22 04:10:28;;;;;;;11.97;4.17;;;15.50;99.90;;;;;;4988507;28;20213;-79
2022/10/22 04:12:55;;;;;;;7.33;3.77;;;15.40;99.90;;;;;;4986533;28;20190;-79
2022/10/22 04:15:22;;;;;;;6.70;4.13;;;15.40;99.90;;;;;;4974968;28;20199;-79
2022/10/22 04:17:49;;;;;;;10.23;3.83;;;15.40;99.90;;;;;;4971909;28;20642;-79
2022/10/22 04:20:16;;;;;;;9.47;4.00;;;15.40;99.90;;;;;;4985310;28;20192;-80
2022/10/22 04:22:44;;;;;;;8.00;4.10;;;15.50;99.90;;;;;;4971408;28;20186;-79
2022/10/22 04:25:10;;;;;;;12.50;4.20;;;15.50;99.90;;;;;;4991154;28;20197;-79
2022/10/22 04:27:36;;;;;;;9.00;4.30;;;15.40;99.90;;;;;;4982818;28;20186;-79
2022/10/22 04:30:05;;;;;;;9.33;4.23;;;15.40;99.90;;;;;;4988443;28;20642;-79
2022/10/22 04:32:33;;;;;;;10.20;3.73;;;15.40;99.90;;;;;;4952950;28;20721;-79
2022/10/22 04:35:00;;;;;;;13.17;4.10;;;15.40;99.90;;;;;;4967750;28;20201;-79
2022/10/22 04:37:26;;;;;;;10.30;4.20;;;15.50;99.90;;;;;;4983102;28;20280;-79
2022/10/22 04:39:53;;;;;;;9.93;4.10;;;15.50;99.90;;;;;;4948023;28;20185;-79
2022/10/22 04:42:19;;;;;;;8.73;4.03;;;15.50;99.90;;;;;;4971632;28;20633;-79
2022/10/22 04:44:46;;;;;;;12.60;4.20;;;15.50;99.90;;;;;;4968979;28;20284;-79
2022/10/22 04:47:12;;;;;;;8.47;4.33;;;15.60;99.90;;;;;;4974725;28;20650;-79
2022/10/22 04:49:39;;;;;;;8.23;4.20;;;15.60;99.90;;;;;;4979199;28;20702;-79
2022/10/22 04:52:06;;;;;;;11.87;4.73;;;15.60;99.90;;;;;;4983480;28;20264;-79
2022/10/22 04:54:33;;;;;;;8.23;3.60;;;15.60;99.90;;;;;;4982000;28;20666;-79
2022/10/22 04:57:00;;;;;;;10.80;4.20;;;15.60;99.90;;;;;;4948861;28;20193;-80
2022/10/22 04:59:26;;;;;;;12.30;4.17;;;15.60;99.90;;;;;;4957851;28;20231;-80
2022/10/22 05:01:53;;;;;;;8.27;3.77;;;15.70;99.90;;;;;;4985278;28;20272;-79
2022/10/22 05:04:19;;;;;;;9.20;4.30;;;15.70;99.90;;;;;;4985667;28;20197;-79
2022/10/22 05:06:46;;;;;;;8.47;3.73;;;15.70;99.90;;;;;;4968816;28;20606;-79
2022/10/22 05:09:18;;;;;;;8.13;3.57;;;15.70;99.90;;;;;;4973673;28;20182;-79
2022/10/22 05:11:49;;;;;;;7.00;3.73;;;15.80;99.90;;;;;;4985039;28;20234;-79
2022/10/22 05:14:23;;;;;;;12.10;4.30;;;15.80;99.90;;;;;;4982209;28;20602;-79
2022/10/22 05:16:51;;;;;;;10.50;3.70;;;15.80;99.90;;;;;;4969267;28;20213;-79
2022/10/22 05:19:23;;;;;;;8.97;3.80;;;15.90;99.90;;;;;;4965765;28;20255;-79
2022/10/22 05:21:57;;;;;;;6.07;3.37;;;16.00;99.90;;;;;;4953826;28;20192;-79
2022/10/22 05:24:26;;;;;;;10.23;3.83;;;16.00;99.90;;;;;;4979012;28;20196;-79
2022/10/22 05:26:56;;;;;;;7.00;3.77;;;16.10;99.90;;;;;;4984416;28;20276;-79
2022/10/22 05:29:23;;;;;;;7.70;3.97;;;16.20;99.90;;;;;;4951621;28;21017;-79
2022/10/22 05:31:50;;;;;;;8.30;4.27;;;16.20;99.90;;;;;;4966459;28;20817;-79
2022/10/22 05:34:18;;;;;;;8.47;4.27;;;16.30;99.90;;;;;;4963108;28;20186;-79
2022/10/22 05:36:45;;;;;;;7.47;3.80;;;16.30;99.90;;;;;;4963989;28;20454;-79
2022/10/22 05:39:12;;;;;;;9.57;3.83;;;16.40;99.90;;;;;;4985512;28;20193;-80
2022/10/22 05:41:40;;;;;;;7.50;3.93;;;16.40;99.90;;;;;;4986046;28;20201;-79
2022/10/22 05:44:06;;;;;;;10.93;3.77;;;16.50;99.90;;;;;;4984897;28;21191;-79
2022/10/22 05:46:35;;;;;;;8.03;3.80;;;16.60;99.90;;;;;;4956942;28;20305;-80
2022/10/22 05:49:05;;;;;;;6.50;3.63;;;16.60;99.90;;;;;;4954576;28;20276;-79
2022/10/22 05:51:35;;;;;;;9.07;3.93;;;16.70;99.90;;;;;;4982927;28;20220;-80
2022/10/22 05:54:06;;;;;;;5.77;3.60;;;16.80;99.90;;;;;;4973976;28;20193;-79
2022/10/22 05:56:37;;;;;;;8.37;3.77;;;16.80;99.90;;;;;;4963881;28;20928;-79
2022/10/22 05:59:04;;;;;;;7.37;3.97;;;16.90;99.90;;;;;;4959205;28;20555;-79
2022/10/22 06:01:34;;;;;;;8.53;3.80;;;16.90;99.90;;;;;;4982733;28;21008;-79
2022/10/22 06:04:05;;;;;;;7.77;4.00;;;16.90;99.90;;;;;;4979484;28;20203;-79
2022/10/22 06:06:38;;;;;;;5.40;3.93;;;16.90;99.90;;;;;;4978675;28;20200;-79
2022/10/22 06:09:23;;;;;;;9.07;4.07;;;16.90;99.90;;;;;;4986253;28;20193;-79
2022/10/22 06:11:50;;;;;;;9.17;3.50;;;16.90;99.90;;;;;;4965602;28;20224;-79
2022/10/22 06:14:21;;;;;;;7.43;3.80;;;16.90;99.90;;;;;;4968081;28;20182;-79
2022/10/22 06:16:48;;;;;;;9.27;4.23;;;16.90;99.90;;;;;;4958798;28;20189;-79
2022/10/22 06:19:18;;;;;;;6.03;3.60;;;16.90;99.90;;;;;;4976886;28;20245;-80
2022/10/22 06:21:45;;;;;;;9.10;3.57;;;17.00;99.90;;;;;;4962802;28;20252;-79
2022/10/22 06:24:12;;;;;;;5.20;3.40;;;17.00;99.90;;;;;;4968369;28;20571;-79
2022/10/22 06:26:39;;;;;;;6.87;3.73;;;17.10;99.90;;;;;;4971739;28;20241;-79
2022/10/22 06:29:07;;;;;;;9.00;3.87;;;17.10;99.90;;;;;;4967824;28;20189;-79
2022/10/22 06:31:37;;;;;;;7.47;4.13;;;17.10;99.90;;;;;;4971259;28;20201;-80
2022/10/22 06:34:10;;;;;;;9.17;3.40;;;17.20;99.90;;;;;;4969993;28;20177;-79
2022/10/22 06:36:36;;;;;;;6.67;3.90;;;17.30;99.90;;;;;;4968600;28;20193;-79
2022/10/22 06:39:04;;;;;;;10.83;3.80;;;17.30;99.90;;;;;;4970185;28;20565;-79
2022/10/22 06:41:31;;;;;;;11.83;4.50;;;17.40;99.90;;;;;;4986841;28;20298;-80
2022/10/22 06:43:57;;;;;;;10.13;4.13;;;17.40;99.90;;;;;;4953763;28;20579;-79
2022/10/22 06:46:25;;;;;;;10.40;3.60;;;17.40;99.90;;;;;;4995100;28;20196;-79
2022/10/22 06:49:02;;;;;;;9.50;3.73;;;17.50;99.90;;;;;;4969853;28;20185;-80
2022/10/22 06:51:29;;;;;;;6.80;3.70;;;17.60;99.90;;;;;;4966606;28;20300;-79
2022/10/22 06:53:57;;;;;;;6.87;3.60;;;17.70;99.90;;;;;;4969870;28;20484;-80
2022/10/22 06:56:28;;;;;;;5.67;3.50;;;17.70;99.90;;;;;;4952839;28;20522;-79
2022/10/22 06:58:57;;;;;;;8.33;3.93;;;17.80;99.90;;;;;;4982110;28;20303;-79
2022/10/22 07:01:28;;;;;;;14.03;3.97;;;17.80;99.90;;;;;;4981713;28;20198;-79
2022/10/22 07:03:56;;;;;;;12.73;4.53;;;17.90;99.90;;;;;;4971541;28;21158;-80
2022/10/22 07:06:26;;;;;;;6.93;3.90;;;17.90;99.90;;;;;;4964385;28;20193;-79
2022/10/22 07:08:56;;;;;;;9.23;3.93;;;18.00;99.90;;;;;;4944459;28;20189;-80
2022/10/22 07:23:06;;;;;;;8.73;3.43;;;18.20;99.90;;;;;;5115890;27;20576;-79
2022/10/22 07:25:33;;;;;;;8.90;3.50;;;18.40;99.90;;;;;;5086700;28;20582;-80
2022/10/22 07:27:59;;;;;;;7.27;4.00;;;18.40;99.90;;;;;;5057439;28;20201;-79
2022/10/22 07:30:27;;;;;;;10.23;3.50;;;18.40;99.90;;;;;;5056490;28;20621;-79
2022/10/22 07:32:55;;;;;;;7.50;3.70;;;18.40;99.90;;;;;;5063500;28;20305;-79
2022/10/22 07:35:26;;;;;;;10.43;3.90;;;18.50;99.90;;;;;;5064690;28;20189;-79
2022/10/22 07:37:52;;;;;;;9.80;3.57;;;18.50;99.90;;;;;;5062177;28;20214;-79
2022/10/22 07:40:18;;;;;;;6.40;3.70;;;18.60;99.90;;;;;;5047751;28;20190;-80
2022/10/22 07:42:45;;;;;;;8.10;4.23;;;18.60;99.90;;;;;;5054075;28;20194;-79
2022/10/22 07:45:12;;;;;;;8.70;4.57;;;18.70;99.90;;;;;;5082165;28;20217;-79
2022/10/22 07:47:39;;;;;;;11.13;5.00;;;18.90;99.90;;;;;;5066638;28;20222;-79
2022/10/22 07:50:06;;;;;;;10.87;4.97;;;19.00;99.90;;;;;;5074873;28;20195;-80
2022/10/22 07:52:33;;;;;;;11.30;5.50;;;19.10;99.90;;;;;;5068071;28;20816;-80
2022/10/22 07:55:00;;;;;;;10.63;5.70;;;19.10;99.90;;;;;;5047037;28;20187;-80
2022/10/22 07:57:27;;;;;;;13.23;5.63;;;19.20;99.90;;;;;;5066483;28;20195;-80
2022/10/22 07:59:55;;;;;;;15.90;6.40;;;19.20;99.90;;;;;;5076917;28;20196;-80
2022/10/22 08:02:21;;;;;;;10.73;5.67;;;19.30;99.90;;;;;;5065644;28;20641;-80
2022/10/22 08:04:47;;;;;;;11.30;5.53;;;19.30;99.90;;;;;;5065126;28;20248;-80
2022/10/22 08:07:14;;;;;;;10.73;4.60;;;19.30;99.90;;;;;;5065285;28;20185;-79
2022/10/22 08:09:40;;;;;;;13.10;5.37;;;19.30;99.90;;;;;;5065040;28;20638;-80
2022/10/22 08:12:07;;;;;;;10.30;4.07;;;19.40;99.90;;;;;;5087705;28;20217;-80
2022/10/22 08:14:33;;;;;;;7.57;4.00;;;19.30;99.90;;;;;;5090753;28;20198;-80
2022/10/22 08:16:59;;;;;;;13.27;4.40;;;19.40;99.90;;;;;;5075146;28;20278;-80
2022/10/22 08:19:27;;;;;;;13.17;3.90;;;19.50;99.90;;;;;;5060965;28;20190;-80
2022/10/22 08:21:54;;;;;;;8.63;3.97;;;19.50;99.90;;;;;;5088078;28;20224;-80
2022/10/22 08:24:20;;;;;;;9.27;4.10;;;19.60;99.90;;;;;;5047439;28;20285;-79
2022/10/22 08:26:47;;;;;;;15.17;4.30;;;19.60;99.90;;;;;;5034254;28;20741;-79
2022/10/22 08:29:13;;;;;;;15.20;3.73;;;19.70;99.90;;;;;;5050724;28;20198;-80
2022/10/22 08:31:40;;;;;;;8.83;3.53;;;19.70;99.90;;;;;;5068849;28;20226;-79
2022/10/22 08:34:07;;;;;;;13.00;3.87;;;19.70;99.90;;;;;;5070245;28;20777;-79
2022/10/22 08:36:34;;;;;;;12.90;4.33;;;19.80;99.90;;;;;;5030188;28;20233;-79
2022/10/22 08:39:01;;;;;;;13.17;4.17;;;19.80;99.90;;;;;;5049497;28;20919;-77
2022/10/22 08:41:27;;;;;;;9.47;3.40;;;19.80;99.90;;;;;;5076808;28;20218;-79
2022/10/22 08:44:19;;;;;;;10.43;4.13;;;19.80;99.90;;;;;;5031620;28;20191;-79
2022/10/22 08:47:35;;;;;;;16.03;4.20;;;19.90;99.90;;;;;;5051015;28;20533;-79
2022/10/22 08:50:03;;;;;;;9.47;3.67;;;20.00;99.90;;;;;;5016598;28;20191;-77
2022/10/22 08:52:33;;;;;;;6.43;3.70;;;20.00;99.90;;;;;;5060693;28;20288;-77
2022/10/22 08:55:03;;;;;;;9.47;3.83;;;20.00;99.90;;;;;;5046577;28;20195;-79
2022/10/22 08:57:48;;;;;;;13.70;4.40;;;20.10;99.90;;;;;;5055392;28;20194;-79
2022/10/22 09:00:40;;;;;;;10.17;3.93;;;20.30;99.90;;;;;;5060571;28;20194;-79
2022/10/22 09:03:38;;;;;;;13.67;3.97;;;20.30;99.90;;;;;;5035316;28;21164;-79
2022/10/22 09:06:24;;;;;;;12.77;4.40;;;20.20;99.90;;;;;;5065748;28;20945;-79
2022/10/22 09:08:52;;;;;;;8.15;4.30;;;20.30;99.90;;;;;;5060282;28;20179;-79
2022/10/22 09:11:35;;;;;;;20.67;5.30;;;20.40;99.90;;;;;;5064871;28;20217;-79
2022/10/22 09:14:04;;;;;;;13.20;4.03;;;20.50;99.90;;;;;;5065253;28;20199;-77
2022/10/22 09:17:15;;;;;;;13.17;4.37;;;20.60;99.90;;;;;;5047874;28;20735;-77
2022/10/22 09:20:11;;;;;;;10.23;4.10;;;20.70;99.90;;;;;;5062414;28;20197;-79
2022/10/22 09:22:57;;;;;;;9.48;3.83;;;20.80;99.90;;;;;;5059274;28;20186;-79
2022/10/22 09:25:34;;;;;;;7.85;4.07;;;20.90;99.90;;;;;;5069380;28;20205;-80
2022/10/22 09:28:01;;;;;;;8.13;3.67;;;20.90;99.90;;;;;;5030617;28;20189;-79
2022/10/22 09:30:36;;;;;;;8.02;3.83;;;21.00;99.90;;;;;;5065192;28;20207;-79
2022/10/22 09:33:11;;;;;;;11.40;4.40;;;21.10;99.90;;;;;;5070332;28;20342;-80
2022/10/22 09:35:52;;;;;;;10.63;4.37;;;21.20;99.90;;;;;;5047405;28;20644;-80
2022/10/22 09:38:26;;;;;;;9.50;3.83;;;21.30;99.90;;;;;;5051841;28;20187;-79
2022/10/22 09:40:56;;;;;;;7.60;3.72;;;21.40;99.90;;;;;;5037943;28;20198;-79
2022/10/22 09:43:23;;;;;;;10.40;4.30;;;21.40;99.90;;;;;;5042735;28;20846;-80
2022/10/22 09:46:04;;;;;;;10.95;4.22;;;21.50;99.90;;;;;;5049615;28;20200;-80
2022/10/22 09:48:46;;;;;;;14.07;4.40;;;21.60;99.90;;;;;;5063232;28;20206;-80
2022/10/22 09:51:22;;;;;;;12.40;3.88;;;21.70;99.90;;;;;;5053516;28;20562;-80
2022/10/22 09:54:01;;;;;;;9.55;3.78;;;21.90;99.90;;;;;;5037476;28;20663;-80
2022/10/22 09:56:38;;;;;;;8.65;4.00;;;21.90;99.90;;;;;;5065213;28;20179;-77
2022/10/22 09:59:05;;;;;;;10.93;4.07;;;21.90;99.90;;;;;;5024539;28;20194;-77
2022/10/22 10:01:35;;;;;;;12.48;4.43;;;22.10;99.90;;;;;;5033546;28;20302;-77
2022/10/22 10:04:08;;;;;;;11.98;3.80;;;22.20;99.90;;;;;;5031579;28;20194;-77
2022/10/22 10:06:39;;;;;;;7.20;3.65;;;22.20;99.90;;;;;;5065676;28;20313;-79
2022/10/22 10:09:20;;;;;;;10.23;3.28;;;22.30;99.90;;;;;;5054259;28;20313;-79
2022/10/22 10:12:23;;;;;;;11.20;3.50;;;22.40;99.90;;;;;;5062629;28;20359;-79
2022/10/22 10:15:05;;;;;;;10.80;3.97;;;22.70;99.90;;;;;;5082183;28;20187;-80
2022/10/22 10:18:08;;;;;;;7.20;3.72;;;22.80;99.90;;;;;;5065931;28;20199;-80
2022/10/22 10:21:04;;;;;;;14.75;3.42;;;22.80;99.90;;;;;;5047540;28;20201;-79
2022/10/22 10:24:13;;;;;;;11.73;4.28;;;23.20;99.90;;;;;;5040718;28;20210;-79
2022/10/22 10:27:21;;;;;;;10.45;4.00;;;24.30;99.90;;;;;;5066274;28;20183;-79
2022/10/22 10:30:18;;;;;;;8.27;3.67;;;25.90;99.90;;;;;;5020628;28;20193;-78
2022/10/22 10:33:22;;;;;;;11.00;4.03;;;25.80;99.90;;;;;;5060733;28;20267;-79
2022/10/22 10:36:03;;;;;;;7.88;3.10;;;25.10;99.90;;;;;;5077358;28;20182;-80
2022/10/22 10:38:48;;;;;;;10.40;3.70;;;24.60;99.90;;;;;;5043882;28;20191;-79
2022/10/22 10:41:41;;;;;;;12.38;3.92;;;24.60;99.90;;;;;;5031433;28;20198;-79
2022/10/22 10:44:34;;;;;;;6.88;3.90;;;24.50;99.90;;;;;;5071699;28;20993;-80
2022/10/22 10:47:46;;;;;;;12.30;3.70;;;24.30;99.90;;;;;;5052281;28;20265;-80
2022/10/22 10:50:23;;;;;;;11.50;3.40;;;24.50;99.90;;;;;;5033744;28;20596;-80
2022/10/22 10:53:27;;;;;;;7.43;3.72;;;24.90;99.90;;;;;;5030276;28;20190;-80
2022/10/22 10:56:19;;;;;;;7.78;3.58;;;26.10;99.90;;;;;;5043441;28;20646;-80
2022/10/22 10:59:13;;;;;;;10.73;3.85;;;24.40;99.90;;;;;;5071194;28;20190;-80
2022/10/22 11:02:32;;;;;;;9.45;3.50;;;23.80;99.90;;;;;;5035249;28;20662;-79
2022/10/22 11:05:44;;;;;;;7.70;3.38;;;23.50;99.90;;;;;;5054548;28;20185;-80
2022/10/22 11:08:13;;;;;;;13.48;3.88;;;23.30;99.90;;;;;;5053152;28;20194;-80
2022/10/22 11:10:49;;;;;;;10.38;3.78;;;23.30;99.90;;;;;;5054557;28;20181;-80
2022/10/22 11:13:37;;;;;;;8.60;3.92;;;23.30;99.90;;;;;;5051651;28;20959;-79
2022/10/22 11:16:24;;;;;;;11.00;3.78;;;23.30;99.90;;;;;;5024855;28;20183;-79
2022/10/22 11:19:50;;;;;;;12.52;4.10;;;23.30;99.90;;;;;;5037569;28;20432;-79
2022/10/22 11:22:29;;;;;;;11.02;4.15;;;23.30;99.90;;;;;;5000750;28;20195;-79
2022/10/22 11:25:26;;;;;;;9.48;4.10;;;23.30;99.90;;;;;;5048907;28;20187;-79
2022/10/22 11:28:31;;;;;;;12.35;4.38;;;23.30;99.90;;;;;;5064482;28;20970;-79
2022/10/22 11:31:18;;;;;;;6.47;3.30;;;23.40;99.90;;;;;;5055064;28;20202;-79
2022/10/22 11:34:29;;;;;;;11.48;3.67;;;23.30;99.90;;;;;;5046454;28;20187;-78
2022/10/22 11:36:58;;;;;;;13.35;4.18;;;23.30;99.90;;;;;;5041090;28;20803;-79
2022/10/22 11:39:54;;;;;;;7.93;3.72;;;23.30;99.90;;;;;;5036505;28;20187;-79
2022/10/22 11:42:39;;;;;;;11.00;4.00;;;23.20;99.90;;;;;;5053466;28;20183;-79
2022/10/22 11:45:14;;;;;;;7.57;3.75;;;23.20;99.90;;;;;;5041221;28;20182;-79
2022/10/22 11:48:09;;;;;;;6.50;3.42;;;23.10;99.90;;;;;;5064948;28;20182;-79
2022/10/22 11:50:55;;;;;;;8.30;3.50;;;23.20;99.90;;;;;;5032218;28;20191;-79
2022/10/22 11:53:38;;;;;;;7.10;3.80;;;23.10;99.90;;;;;;5055323;28;20259;-79
2022/10/22 11:56:11;;;;;;;10.18;4.10;;;23.10;99.90;;;;;;5053933;28;20244;-79
2022/10/22 11:58:43;;;;;;;8.23;3.80;;;23.00;99.90;;;;;;5038345;28;20216;-79
2022/10/22 12:01:10;;;;;;;11.88;3.78;;;23.00;99.90;;;;;;5045346;28;20204;-79
2022/10/22 12:04:02;;;;;;;9.27;3.72;;;23.00;99.90;;;;;;5057559;28;20194;-79
2022/10/22 12:06:48;;;;;;;6.60;3.67;;;23.00;99.90;;;;;;5021537;28;20191;-79
2022/10/22 12:09:18;;;;;;;10.02;3.97;;;23.00;99.90;;;;;;5067241;28;20555;-79
2022/10/22 12:11:52;;;;;;;10.98;3.70;;;23.00;99.90;;;;;;5054593;28;20238;-79
2022/10/22 12:14:36;;;;;;;12.38;4.05;;;22.90;99.90;;;;;;5058843;28;20888;-79
2022/10/22 12:17:15;;;;;;;12.88;3.85;;;22.80;99.90;;;;;;5050617;28;20178;-79
2022/10/22 12:19:58;;;;;;;9.60;3.55;;;22.90;99.90;;;;;;5033945;28;20170;-79
2022/10/22 12:22:32;;;;;;;11.43;3.95;;;22.80;99.90;;;;;;5054311;28;20239;-79
2022/10/22 12:25:08;;;;;;;11.30;3.47;;;22.80;99.90;;;;;;5070038;28;20179;-79
2022/10/22 12:27:39;;;;;;;9.13;4.10;;;22.80;99.90;;;;;;5037660;28;20185;-79
2022/10/22 12:30:25;;;;;;;9.73;3.47;;;22.80;99.90;;;;;;5070093;28;20553;-79
2022/10/22 12:32:59;;;;;;;9.70;3.63;;;22.80;99.90;;;;;;5070319;28;20184;-79
2022/10/22 12:35:31;;;;;;;9.88;3.95;;;22.80;99.90;;;;;;5073527;28;20282;-79
2022/10/22 12:38:14;;;;;;;8.00;3.72;;;22.80;99.90;;;;;;5048159;28;20662;-79
2022/10/22 12:40:41;;;;;;;7.07;3.97;;;22.80;99.90;;;;;;5033566;28;20178;-79
2022/10/22 12:43:24;;;;;;;11.15;3.55;;;22.70;99.90;;;;;;5049577;28;20205;-79
2022/10/22 12:45:56;;;;;;;7.88;3.97;;;22.70;99.90;;;;;;5047071;28;20213;-79
2022/10/22 12:48:29;;;;;;;10.88;3.63;;;22.60;99.90;;;;;;5033462;28;20667;-79
2022/10/22 12:51:03;;;;;;;8.40;3.50;;;22.60;99.90;;;;;;5070028;28;20205;-79
2022/10/22 12:53:54;;;;;;;9.40;3.53;;;22.50;99.90;;;;;;5063653;28;20864;-79
2022/10/22 12:56:33;;;;;;;8.90;3.75;;;22.40;99.90;;;;;;5071916;28;20193;-79
2022/10/22 12:59:26;;;;;;;8.10;3.90;;;22.40;99.90;;;;;;5053058;28;20194;-79
2022/10/22 13:01:54;;;;;;;11.00;3.85;;;22.40;99.90;;;;;;5047998;28;20264;-79
2022/10/22 13:04:36;;;;;;;12.25;4.00;;;22.30;99.90;;;;;;5034840;28;20260;-79
2022/10/22 13:07:04;;;;;;;6.88;3.50;;;22.20;99.90;;;;;;5047680;28;20855;-79
2022/10/22 13:09:59;;;;;;;9.98;3.78;;;22.20;99.90;;;;;;5040934;28;20527;-79
2022/10/22 13:12:34;;;;;;;12.15;4.10;;;22.20;99.90;;;;;;5082036;28;20205;-79
2022/10/22 13:15:31;;;;;;;10.20;3.95;;;22.10;99.90;;;;;;5041635;28;20737;-79
2022/10/22 13:18:19;;;;;;;7.50;3.83;;;22.10;99.90;;;;;;5077690;28;20190;-79
2022/10/22 13:21:02;;;;;;;8.73;3.88;;;22.00;99.90;;;;;;5031139;28;20186;-79
2022/10/22 13:23:33;;;;;;;11.63;3.95;;;22.00;99.90;;;;;;5069146;28;20273;-79
2022/10/22 13:26:15;;;;;;;14.38;3.83;;;22.00;99.90;;;;;;5049968;28;20202;-79
2022/10/22 13:28:53;;;;;;;6.00;4.05;;;21.90;99.90;;;;;;5071521;28;20191;-79
2022/10/22 13:31:32;;;;;;;14.00;4.18;;;21.90;99.90;;;;;;5050155;28;20222;-79
2022/10/22 13:34:13;;;;;;;9.20;3.55;;;21.90;99.90;;;;;;5049625;28;20187;-79
2022/10/22 13:36:39;;;;;;;7.83;3.33;;;21.90;99.90;;;;;;5049074;28;20193;-79
2022/10/22 13:39:11;;;;;;;7.68;3.50;;;21.80;99.90;;;;;;5065143;28;20240;-79